KALO/ALO METAR and TAF weather

Enter ICAO airport designator
Station Type Date Time Source
KALO METAR 2021/01/17 18:54 UTC NOAA

KALO 171854Z 35007KT 10SM SCT012 M04/M07 A2977 RMK AO2 SLP094 T10441072


Station Type Date Time Source
KALO Decoded METAR 2021/01/17 18:54 UTC NOAA

WATERLOO MUNICIPAL AIRPORT, IA, United States (KALO) 42-33N 92-24W 264M
Jan 17, 2021 - 01:54 PM EST / 2021.01.17 1854 UTC
Wind: from the N (350 degrees) at 8 MPH (7 KT):0
Visibility: 10 mile(s):0
Sky conditions: partly cloudy
Temperature: 24.1 F (-4.4 C)
Windchill: 15 F (-9 C):1
Dew Point: 19.0 F (-7.2 C)
Relative Humidity: 80%
Pressure (altimeter): 29.77 in. Hg (1008 hPa)
ob: KALO 171854Z 35007KT 10SM SCT012 M04/M07 A2977 RMK AO2 SLP094 T10441072
cycle: 19

Station Type Date Time Source
KALO TAF 2021/01/17 18:36 UTC NOAA

TAF KALO 171735Z 1718/1818 32008KT P6SM BKN015
FM180300 30005KT 4SM -SN BR OVC010
FM180700 29005KT P6SM OVC015
FM181200 29006KT P6SM OVC040

Example: see airport list